Time;durP1;ratioP1;P1;durP2;ratioP2;P2;SDS_P1;SDS_P2;PMS_P1;PMS_P2;Temp;Humidity;BMP_temperature;BMP_pressure;BME280_temperature;BME280_humidity;BME280_pressure;Samples;Min_cycle;Max_cycle;Signal;HPM_P1;HPM_P2
2023/07/07 00:12:03;;;;;;;7.75;3.25;;;;;;;20.20;51.20;100181.28;4689515;29;20049;-85
2023/07/07 00:15:05;;;;;;;5.25;3.30;;;;;;;20.26;51.13;100182.38;4809482;28;20055;-85
2023/07/07 00:20:17;;;;;;;;;;;;;;;;;;;;;
2023/07/07 00:37:46;;;;;;;4.40;3.20;;;;;;;20.04;51.46;100192.28;6079703;22;1273259;-87
2023/07/07 00:40:13;;;;;;;4.95;3.30;;;;;;;20.07;51.47;100186.50;6100641;23;20033;-86
2023/07/07 00:42:40;;;;;;;4.95;3.58;;;;;;;20.05;51.50;100189.41;6025851;23;20026;-87
2023/07/07 00:45:18;;;;;;;4.28;3.22;;;;;;;19.91;52.38;100187.56;6123990;23;20172;-86
2023/07/07 00:47:53;;;;;;;9.38;4.30;;;;;;;19.98;51.85;100191.19;6098939;23;20187;-86
2023/07/07 00:50:22;;;;;;;4.10;3.13;;;;;;;20.04;51.19;100197.66;6099654;23;20303;-86
2023/07/07 00:52:49;;;;;;;6.68;3.10;;;;;;;20.00;51.51;100197.22;6099338;23;20021;-86
2023/07/07 00:55:26;;;;;;;6.45;3.42;;;;;;;19.92;51.67;100197.31;6100637;23;20370;-86
2023/07/07 00:57:54;;;;;;;5.35;3.10;;;;;;;19.97;51.54;100202.97;6076080;23;20017;-86
2023/07/07 01:00:21;;;;;;;5.53;3.38;;;;;;;19.99;51.49;100198.22;6074838;23;20132;-86
2023/07/07 01:02:53;;;;;;;5.28;3.55;;;;;;;19.90;51.55;100197.50;6051816;23;20056;-86
2023/07/07 01:05:23;;;;;;;7.90;3.47;;;;;;;19.92;51.69;100208.09;6123724;23;20021;-86
2023/07/07 01:07:51;;;;;;;6.03;3.75;;;;;;;19.90;51.57;100202.06;6100269;23;20026;-86
2023/07/07 01:10:21;;;;;;;5.60;3.35;;;;;;;19.82;51.89;100204.84;6098908;23;20026;-86
2023/07/07 01:12:49;;;;;;;4.45;3.30;;;;;;;19.86;51.89;100200.75;6099517;23;20021;-86
2023/07/07 01:15:16;;;;;;;6.50;3.28;;;;;;;19.84;51.94;100208.19;6052214;23;20390;-86
2023/07/07 01:18:11;;;;;;;6.47;3.30;;;;;;;19.78;52.16;100203.56;6099569;23;20025;-86
2023/07/07 01:21:01;;;;;;;6.05;3.58;;;;;;;19.68;52.52;100201.16;6069461;23;20438;-87
2023/07/07 01:24:18;;;;;;;5.88;3.22;;;;;;;19.60;52.59;100209.28;6099527;23;20349;-86
2023/07/07 01:27:30;;;;;;;8.45;3.85;;;;;;;19.48;52.88;100215.13;6059089;23;20022;-86
2023/07/07 01:30:05;;;;;;;8.05;3.33;;;;;;;19.65;52.33;100210.41;6088245;23;20029;-87
2023/07/07 01:32:34;;;;;;;6.28;3.63;;;;;;;19.61;52.36;100203.69;6123297;23;20446;-87
2023/07/07 01:35:13;;;;;;;5.68;3.30;;;;;;;19.52;52.89;100207.53;6099843;23;20048;-86
2023/07/07 01:37:40;;;;;;;5.57;3.42;;;;;;;19.61;52.39;100203.69;6094890;23;20069;-87
2023/07/07 01:40:08;;;;;;;6.90;3.30;;;;;;;19.57;52.25;100202.41;6068103;23;20508;-86
2023/07/07 01:42:46;;;;;;;6.03;3.08;;;;;;;19.50;52.99;100204.16;6045527;23;20409;-86
2023/07/07 01:45:22;;;;;;;7.10;3.35;;;;;;;19.42;52.77;100205.09;6092516;23;20018;-86
2023/07/07 01:48:10;;;;;;;5.15;2.92;;;;;;;19.36;53.01;100213.06;6116139;23;20033;-87
2023/07/07 01:50:38;;;;;;;7.72;3.95;;;;;;;19.51;52.36;100209.38;6068336;23;20069;-86
2023/07/07 01:53:11;;;;;;;4.43;3.30;;;;;;;19.49;52.80;100207.91;6068315;23;20026;-86
2023/07/07 01:55:41;;;;;;;6.03;3.45;;;;;;;19.50;52.55;100210.38;6069453;23;20022;-87
2023/07/07 01:58:09;;;;;;;5.63;3.70;;;;;;;19.52;52.46;100218.31;6087776;23;20021;-87
2023/07/07 02:00:36;;;;;;;3.67;3.08;;;;;;;19.48;52.37;100208.91;6044678;23;20027;-86
2023/07/07 02:03:08;;;;;;;7.78;3.38;;;;;;;19.38;52.96;100205.66;6116927;23;20022;-86
2023/07/07 02:05:35;;;;;;;12.27;3.70;;;;;;;19.40;52.62;100209.00;6116522;23;20077;-86
2023/07/07 02:08:02;;;;;;;5.50;2.90;;;;;;;19.38;52.74;100211.03;6092733;23;20026;-86
2023/07/07 02:10:29;;;;;;;6.47;3.05;;;;;;;19.35;52.83;100212.22;6092813;23;20029;-86
2023/07/07 02:12:56;;;;;;;4.40;3.50;;;;;;;19.33;52.74;100208.88;6069395;23;20025;-86
2023/07/07 02:15:22;;;;;;;5.38;3.40;;;;;;;19.28;53.04;100214.84;6067717;23;20048;-87
2023/07/07 02:17:49;;;;;;;5.75;3.20;;;;;;;19.27;53.03;100202.38;6092753;23;20022;-87
2023/07/07 02:20:16;;;;;;;6.28;3.53;;;;;;;19.23;53.03;100209.16;6068533;23;20028;-86
2023/07/07 02:22:43;;;;;;;5.20;3.08;;;;;;;19.20;53.11;100203.28;6093445;23;20021;-86
2023/07/07 02:25:10;;;;;;;4.30;3.10;;;;;;;19.21;53.05;100203.13;6068396;23;20050;-86
2023/07/07 02:27:37;;;;;;;4.50;3.28;;;;;;;19.18;53.27;100206.16;6092105;23;20310;-86
2023/07/07 02:30:04;;;;;;;5.70;3.55;;;;;;;19.20;53.15;100206.81;6091927;23;20025;-86
2023/07/07 02:32:31;;;;;;;5.47;3.25;;;;;;;19.15;53.05;100203.00;6116331;23;20026;-86
2023/07/07 02:35:01;;;;;;;5.07;3.60;;;;;;;19.12;53.27;100206.91;6067585;23;20029;-86
2023/07/07 02:37:28;;;;;;;6.32;2.97;;;;;;;19.10;53.22;100208.94;6068799;23;20077;-86
2023/07/07 02:39:55;;;;;;;6.88;3.28;;;;;;;19.10;53.28;100211.63;6091674;23;20018;-86
2023/07/07 02:42:22;;;;;;;5.88;3.53;;;;;;;19.04;53.56;100206.97;6092085;23;20096;-86
2023/07/07 02:44:49;;;;;;;5.20;2.78;;;;;;;19.03;53.47;100211.53;6092353;23;20098;-85
2023/07/07 02:47:15;;;;;;;6.70;3.35;;;;;;;19.01;53.34;100212.72;6068842;23;20024;-86
2023/07/07 02:49:42;;;;;;;7.22;3.60;;;;;;;18.99;53.30;100210.22;6067428;23;20028;-86
2023/07/07 02:52:09;;;;;;;5.72;3.42;;;;;;;18.99;53.27;100209.38;6091354;23;20030;-86
2023/07/07 02:54:36;;;;;;;7.75;3.60;;;;;;;18.97;53.39;100214.09;6068430;23;20450;-86
2023/07/07 02:57:04;;;;;;;7.15;3.13;;;;;;;18.96;53.39;100213.28;6068277;23;20030;-87
2023/07/07 02:59:31;;;;;;;5.03;3.10;;;;;;;18.94;53.61;100209.91;6044062;23;20034;-86
2023/07/07 03:01:58;;;;;;;6.03;2.80;;;;;;;18.90;53.65;100213.97;6044182;23;20020;-87
2023/07/07 03:04:26;;;;;;;5.57;3.20;;;;;;;18.89;53.57;100203.41;6116472;23;20025;-86
2023/07/07 03:06:53;;;;;;;7.43;3.33;;;;;;;18.91;53.58;100204.06;6068515;23;20022;-86
2023/07/07 03:09:21;;;;;;;6.47;3.50;;;;;;;18.92;53.37;100198.50;6067434;23;20022;-86
2023/07/07 03:11:48;;;;;;;5.50;3.38;;;;;;;18.87;53.14;100198.19;6115935;23;20089;-85
2023/07/07 03:14:19;;;;;;;4.93;3.05;;;;;;;18.86;53.24;100204.59;6069323;23;20089;-86
2023/07/07 03:16:51;;;;;;;7.50;3.33;;;;;;;18.84;53.29;100203.94;6115167;23;20026;-85
2023/07/07 03:19:28;;;;;;;7.93;3.50;;;;;;;18.83;53.26;100202.28;6069281;23;20022;-86
2023/07/07 03:22:08;;;;;;;4.60;2.92;;;;;;;18.77;53.57;100203.00;6072110;23;20346;-85
2023/07/07 03:24:52;;;;;;;4.90;2.92;;;;;;;18.71;53.70;100211.75;6114769;23;20022;-87
2023/07/07 03:27:37;;;;;;;3.33;2.72;;;;;;;18.72;53.62;100213.41;6066730;23;20029;-87
2023/07/07 03:30:07;;;;;;;5.35;3.17;;;;;;;18.71;53.43;100217.97;6067235;23;20455;-87
2023/07/07 03:32:49;;;;;;;;;;;;;;;18.36;54.73;100217.50;6068365;23;20053;-88
2023/07/07 03:35:17;;;;;;;4.57;3.03;;;;;;;18.62;53.95;100221.72;6065898;23;19932;-89
2023/07/07 03:37:44;;;;;;;5.25;3.17;;;;;;;18.61;53.53;100222.75;6065327;23;20346;-87
2023/07/07 03:40:12;;;;;;;5.57;3.15;;;;;;;18.61;53.57;100218.19;6042369;23;20040;-87
2023/07/07 03:42:39;;;;;;;4.40;3.00;;;;;;;18.64;53.82;100230.44;6088754;23;20037;-87
2023/07/07 03:45:10;;;;;;;4.95;3.10;;;;;;;18.66;53.77;100226.56;6041537;23;20128;-87
2023/07/07 03:47:37;;;;;;;4.18;3.10;;;;;;;18.67;53.64;100230.09;6066025;23;20090;-87
2023/07/07 03:50:11;;;;;;;6.35;3.47;;;;;;;18.65;53.77;100232.16;6089689;23;20045;-87
2023/07/07 03:52:38;;;;;;;4.68;3.25;;;;;;;18.71;53.74;100231.41;6085899;23;20458;-89
2023/07/07 03:55:08;;;;;;;5.60;3.33;;;;;;;18.88;53.97;100242.94;6067341;23;20034;-88
2023/07/07 03:57:35;;;;;;;5.32;3.20;;;;;;;19.03;53.92;100233.06;6089774;23;20021;-88
2023/07/07 04:00:03;;;;;;;5.88;3.40;;;;;;;19.34;54.09;100239.38;6064552;23;20025;-87
2023/07/07 04:02:39;;;;;;;6.13;3.60;;;;;;;19.92;53.75;100237.72;6068618;23;20030;-88
2023/07/07 04:05:06;;;;;;;5.75;3.50;;;;;;;20.63;52.48;100240.69;6065684;23;20394;-87
2023/07/07 04:07:33;;;;;;;7.10;3.15;;;;;;;21.39;50.03;100232.91;6064512;23;20406;-88
2023/07/07 04:10:03;;;;;;;4.63;3.35;;;;;;;22.15;47.15;100223.16;6065940;23;20047;-88
2023/07/07 04:12:33;;;;;;;6.70;4.00;;;;;;;22.51;45.78;100226.41;6075620;23;20045;-88
2023/07/07 04:15:00;;;;;;;6.65;4.15;;;;;;;22.42;45.10;100230.34;6038191;23;20026;-88
2023/07/07 04:17:30;;;;;;;5.47;3.65;;;;;;;21.98;45.62;100233.47;6038314;23;20026;-88
2023/07/07 04:19:56;;;;;;;6.38;3.35;;;;;;;21.56;46.04;100238.00;6059742;23;20562;-87
2023/07/07 04:22:23;;;;;;;4.75;3.88;;;;;;;21.28;46.84;100232.59;6084409;23;20020;-89
2023/07/07 04:25:09;;;;;;;5.47;3.13;;;;;;;20.85;47.17;100235.31;6082892;23;20033;-86
2023/07/07 04:27:37;;;;;;;6.68;3.60;;;;;;;20.93;47.64;100237.88;6059183;23;20451;-88
2023/07/07 04:30:04;;;;;;;7.05;3.92;;;;;;;20.78;47.96;100230.69;6082273;23;20094;-87
2023/07/07 04:32:34;;;;;;;5.20;3.70;;;;;;;20.70;48.49;100236.22;6061225;23;20026;-87
2023/07/07 04:35:01;;;;;;;7.15;3.40;;;;;;;20.67;48.45;100238.47;6037343;23;20046;-89
2023/07/07 04:37:30;;;;;;;6.30;3.63;;;;;;;20.62;48.56;100239.03;6037629;23;20030;-89
2023/07/07 04:39:57;;;;;;;5.95;3.60;;;;;;;20.51;49.22;100243.03;6014523;23;20030;-87
2023/07/07 04:42:24;;;;;;;10.05;3.80;;;;;;;20.51;49.23;100253.84;6060600;23;20102;-88
2023/07/07 04:44:51;;;;;;;5.13;4.22;;;;;;;20.55;49.20;100252.44;6085063;23;20022;-88
2023/07/07 04:47:18;;;;;;;6.15;3.45;;;;;;;20.55;49.38;100255.13;6015601;23;20082;-87
2023/07/07 04:49:45;;;;;;;6.80;3.35;;;;;;;20.54;49.21;100247.22;6038271;23;20093;-87
2023/07/07 04:52:12;;;;;;;4.45;3.10;;;;;;;20.52;49.42;100255.50;6085391;23;20502;-86
2023/07/07 04:54:39;;;;;;;4.95;3.85;;;;;;;20.45;49.83;100249.19;6084393;23;20046;-85
2023/07/07 04:57:06;;;;;;;6.88;3.67;;;;;;;20.39;49.95;100255.34;6085289;23;20411;-85
2023/07/07 04:59:32;;;;;;;9.48;4.15;;;;;;;20.31;49.68;100258.16;6086028;23;20125;-85
2023/07/07 05:01:59;;;;;;;6.85;4.72;;;;;;;20.21;49.81;100260.31;6063921;23;20018;-85
2023/07/07 05:04:27;;;;;;;7.78;3.92;;;;;;;20.15;49.91;100257.34;6086809;23;20081;-85
2023/07/07 05:06:54;;;;;;;6.97;3.75;;;;;;;20.10;49.69;100248.16;6086680;23;20040;-85
2023/07/07 05:09:22;;;;;;;6.35;4.15;;;;;;;20.06;50.27;100254.94;6063702;23;20025;-85
2023/07/07 05:11:49;;;;;;;5.95;3.88;;;;;;;20.07;50.17;100253.91;6086930;23;20128;-86
2023/07/07 05:14:15;;;;;;;7.05;4.07;;;;;;;20.03;50.80;100244.53;6016466;23;20099;-86
2023/07/07 05:16:42;;;;;;;5.35;4.00;;;;;;;20.00;50.92;100252.97;6065069;23;20022;-86
2023/07/07 05:19:09;;;;;;;6.95;3.65;;;;;;;19.94;51.02;100260.78;6040406;23;20029;-86
2023/07/07 05:21:36;;;;;;;4.22;3.40;;;;;;;19.94;51.21;100254.56;6065065;23;20023;-86
2023/07/07 05:24:03;;;;;;;6.15;4.05;;;;;;;19.99;51.78;100252.13;6088795;23;20031;-85
2023/07/07 05:26:30;;;;;;;4.90;3.60;;;;;;;19.96;51.76;100255.22;6064677;23;20022;-85
2023/07/07 05:29:00;;;;;;;7.05;3.72;;;;;;;20.01;51.69;100254.66;6088317;23;20406;-86
2023/07/07 05:31:27;;;;;;;7.65;4.30;;;;;;;19.95;51.66;100262.47;6065013;23;20465;-86
2023/07/07 05:33:54;;;;;;;7.80;4.03;;;;;;;19.97;51.85;100270.34;6041349;23;20042;-85
2023/07/07 05:36:21;;;;;;;8.10;3.78;;;;;;;20.04;52.12;100259.66;6040917;23;20461;-85
2023/07/07 05:38:48;;;;;;;7.88;4.35;;;;;;;20.07;52.06;100265.50;6017167;23;20014;-86
2023/07/07 05:41:14;;;;;;;7.00;4.40;;;;;;;20.11;52.28;100258.72;6066637;23;20032;-85
2023/07/07 05:43:41;;;;;;;6.38;4.15;;;;;;;20.17;52.14;100266.09;6040865;23;20461;-86
2023/07/07 05:46:13;;;;;;;8.40;4.55;;;;;;;20.17;52.37;100259.84;6070612;23;20033;-86
2023/07/07 05:48:41;;;;;;;5.43;3.50;;;;;;;20.26;52.30;100268.69;6021884;23;20026;-85
2023/07/07 05:51:12;;;;;;;5.05;3.63;;;;;;;20.26;52.67;100265.97;6117258;23;20339;-86
2023/07/07 05:53:40;;;;;;;5.65;4.13;;;;;;;20.29;52.37;100265.59;6093408;23;20033;-85
2023/07/07 05:56:12;;;;;;;6.75;4.13;;;;;;;20.31;52.64;100268.94;6093817;23;20030;-86
2023/07/07 05:58:39;;;;;;;6.05;3.80;;;;;;;20.32;52.33;100266.03;6045117;23;20022;-86
2023/07/07 06:01:10;;;;;;;5.65;4.97;;;;;;;20.36;52.56;100261.97;6119857;23;20028;-85
2023/07/07 06:03:39;;;;;;;8.45;4.20;;;;;;;20.41;52.41;100258.69;6093408;23;20022;-85
2023/07/07 06:06:09;;;;;;;6.50;3.78;;;;;;;20.43;52.85;100255.78;6069866;23;20085;-86
2023/07/07 06:08:35;;;;;;;5.57;3.47;;;;;;;20.46;52.91;100266.22;6117060;23;20112;-86
2023/07/07 06:11:03;;;;;;;7.40;4.63;;;;;;;20.50;52.64;100262.09;6093330;23;20021;-86
2023/07/07 06:13:30;;;;;;;6.97;3.85;;;;;;;20.53;52.86;100261.72;6069240;23;20398;-85
2023/07/07 06:15:57;;;;;;;5.93;3.83;;;;;;;20.52;52.24;100257.38;6093648;23;20030;-86
2023/07/07 06:18:24;;;;;;;6.80;3.60;;;;;;;20.56;52.04;100259.53;6068938;23;20022;-85
2023/07/07 06:20:53;;;;;;;4.72;3.53;;;;;;;20.59;51.63;100255.63;6092559;23;20030;-86
2023/07/07 06:23:21;;;;;;;6.78;3.72;;;;;;;20.60;52.01;100258.09;6119395;23;20072;-85
2023/07/07 06:25:48;;;;;;;8.13;3.20;;;;;;;20.62;51.72;100246.31;6070464;23;20022;-86
2023/07/07 06:28:16;;;;;;;6.82;3.45;;;;;;;20.68;51.22;100250.91;6068600;23;20346;-86
2023/07/07 06:30:42;;;;;;;7.32;3.45;;;;;;;20.69;50.25;100242.66;6116823;23;20468;-85
2023/07/07 06:33:10;;;;;;;6.60;3.50;;;;;;;20.75;49.87;100249.13;6118983;23;20034;-86
2023/07/07 06:35:37;;;;;;;5.47;3.08;;;;;;;20.76;49.99;100248.94;6094878;23;20033;-86
2023/07/07 06:38:04;;;;;;;6.95;3.17;;;;;;;20.85;50.73;100254.22;6074235;23;20032;-86
2023/07/07 06:40:31;;;;;;;5.32;3.40;;;;;;;20.89;49.92;100250.94;6122530;23;22452;-85
2023/07/07 06:42:58;;;;;;;6.68;3.15;;;;;;;20.87;49.93;100252.16;6147431;23;20127;-85
2023/07/07 06:45:25;;;;;;;6.43;3.05;;;;;;;20.87;50.31;100246.78;6050526;23;20040;-85
2023/07/07 06:47:53;;;;;;;6.57;3.50;;;;;;;20.89;50.42;100247.38;6097454;23;20040;-85
2023/07/07 06:50:32;;;;;;;7.13;3.35;;;;;;;20.92;50.71;100255.13;6148329;23;20366;-86
2023/07/07 06:52:58;;;;;;;5.00;3.15;;;;;;;20.96;50.42;100254.56;6097492;23;20525;-86
2023/07/07 06:55:25;;;;;;;7.32;3.40;;;;;;;20.99;50.05;100253.31;6147558;23;20028;-86
2023/07/07 06:57:52;;;;;;;7.85;3.05;;;;;;;21.06;49.58;100256.91;6073939;23;20021;-85
2023/07/07 07:00:19;;;;;;;8.52;3.20;;;;;;;21.08;49.52;100259.41;6095888;23;20039;-86
2023/07/07 07:02:46;;;;;;;8.23;4.00;;;;;;;21.12;49.80;100255.31;6097311;23;20382;-86
2023/07/07 07:05:13;;;;;;;6.35;3.20;;;;;;;21.15;49.77;100255.75;6074471;23;20017;-85
2023/07/07 07:07:40;;;;;;;5.80;3.28;;;;;;;21.19;49.57;100261.59;6097581;23;20048;-85
2023/07/07 07:10:07;;;;;;;7.15;3.70;;;;;;;21.27;49.08;100255.19;6073676;23;22286;-86
2023/07/07 07:12:33;;;;;;;5.72;3.33;;;;;;;21.22;48.93;100253.13;6096991;23;20395;-86
2023/07/07 07:15:00;;;;;;;5.45;3.50;;;;;;;21.23;49.12;100258.31;6121420;23;20037;-85
2023/07/07 07:17:27;;;;;;;9.23;3.30;;;;;;;21.25;48.99;100260.81;6148292;23;20030;-86
2023/07/07 07:19:54;;;;;;;6.40;2.97;;;;;;;21.28;48.95;100249.63;6096885;23;20352;-86
2023/07/07 07:22:21;;;;;;;6.00;3.17;;;;;;;21.32;49.22;100250.06;6073635;23;20449;-86
2023/07/07 07:24:48;;;;;;;8.25;3.80;;;;;;;21.38;49.01;100257.38;6097869;23;20393;-86
2023/07/07 07:27:14;;;;;;;5.03;3.20;;;;;;;21.39;49.00;100259.91;6097170;23;20017;-86
2023/07/07 07:29:43;;;;;;;5.78;3.55;;;;;;;21.40;48.89;100252.66;6073091;23;20017;-86
2023/07/07 07:32:10;;;;;;;8.43;3.33;;;;;;;21.41;48.65;100257.03;6097605;23;20045;-86
2023/07/07 07:34:36;;;;;;;5.00;3.05;;;;;;;21.42;48.78;100251.44;6097202;23;20407;-87
2023/07/07 07:37:03;;;;;;;6.57;3.45;;;;;;;;;;6121557;23;20020;-86
2023/07/07 07:39:30;;;;;;;5.35;2.88;;;;;;;21.51;48.85;100254.81;6122151;23;20460;-86
2023/07/07 07:41:57;;;;;;;7.10;3.63;;;;;;;21.56;48.69;100251.53;6121031;23;20017;-86
2023/07/07 07:44:25;;;;;;;10.45;3.60;;;;;;;21.61;48.60;100254.47;6097281;23;20055;-86
2023/07/07 07:46:55;;;;;;;6.72;3.55;;;;;;;21.67;49.16;100246.38;6097543;23;20029;-86
2023/07/07 07:49:23;;;;;;;4.70;3.03;;;;;;;21.69;48.78;100248.91;6122022;23;20028;-86
2023/07/07 07:51:50;;;;;;;7.88;3.00;;;;;;;21.73;48.81;100249.34;6096972;23;20100;-86
2023/07/07 07:54:18;;;;;;;4.95;3.17;;;;;;;21.75;48.51;100249.97;6120484;23;20472;-86
2023/07/07 07:56:46;;;;;;;4.85;3.33;;;;;;;21.76;48.55;100246.25;6097953;23;20096;-86
2023/07/07 07:59:13;;;;;;;6.65;3.35;;;;;;;21.81;48.39;100250.03;6096267;23;20382;-86
2023/07/07 08:01:40;;;;;;;6.20;3.72;;;;;;;21.86;48.66;100252.97;6096965;23;20028;-86
2023/07/07 08:04:07;;;;;;;9.45;3.53;;;;;;;21.88;48.41;100239.25;6097626;23;22857;-86
2023/07/07 08:06:34;;;;;;;5.63;3.30;;;;;;;21.91;48.26;100241.56;6096680;23;20032;-86
2023/07/07 08:09:01;;;;;;;7.10;3.83;;;;;;;21.95;48.25;100250.91;6072818;23;20054;-87
2023/07/07 08:11:40;;;;;;;8.00;3.63;;;;;;;21.94;48.31;100251.97;6097134;23;20029;-86
2023/07/07 08:14:14;;;;;;;6.20;3.60;;;;;;;22.01;48.22;100242.03;6121738;23;20092;-86
2023/07/07 08:16:41;;;;;;;7.43;3.92;;;;;;;22.07;48.50;100245.78;6121325;23;20021;-86
2023/07/07 08:19:08;;;;;;;5.78;3.83;;;;;;;22.07;48.26;100227.69;6049101;23;20408;-87
2023/07/07 08:21:35;;;;;;;15.15;4.05;;;;;;;22.11;48.34;100245.19;6097290;23;20052;-87
2023/07/07 08:24:03;;;;;;;7.72;4.43;;;;;;;22.18;47.73;100253.31;6120691;23;20500;-87
2023/07/07 08:26:30;;;;;;;8.23;3.80;;;;;;;22.15;47.99;100239.38;6121669;23;20045;-85
2023/07/07 08:28:58;;;;;;;5.88;3.35;;;;;;;22.21;48.01;100255.69;6072458;23;20373;-86
2023/07/07 08:31:25;;;;;;;5.95;3.72;;;;;;;22.25;48.18;100250.69;6120247;23;20025;-87
2023/07/07 08:33:52;;;;;;;10.60;4.10;;;;;;;22.30;48.15;100251.75;6096958;23;20034;-87
2023/07/07 08:36:27;;;;;;;8.05;4.00;;;;;;;22.30;47.79;100254.44;6076688;23;20014;-86
2023/07/07 08:38:55;;;;;;;8.82;4.20;;;;;;;22.31;47.73;100244.44;6071820;23;20018;-86
2023/07/07 08:41:22;;;;;;;6.50;3.80;;;;;;;22.33;47.60;100245.91;6122008;23;20364;-86
2023/07/07 08:43:49;;;;;;;7.72;4.00;;;;;;;22.37;47.82;100249.06;6097174;23;20025;-86
2023/07/07 08:46:39;;;;;;;9.80;4.28;;;;;;;22.32;47.67;100254.25;6096460;23;20120;-86
2023/07/07 08:49:23;;;;;;;9.25;4.70;;;;;;;22.39;47.58;100251.56;6097734;23;20361;-86
2023/07/07 08:51:58;;;;;;;9.80;4.72;;;;;;;22.48;47.71;100247.66;6123431;23;20017;-87
2023/07/07 08:54:38;;;;;;;6.20;4.22;;;;;;;22.51;47.85;100241.81;6099260;23;20052;-88
2023/07/07 08:57:08;;;;;;;6.70;4.00;;;;;;;22.53;48.08;100246.00;6075154;23;20420;-86
2023/07/07 08:59:48;;;;;;;9.60;4.78;;;;;;;22.51;47.82;100241.81;6099286;23;20022;-88
2023/07/07 09:02:44;;;;;;;8.02;4.57;;;;;;;22.51;47.58;100242.66;6098818;23;20021;-88
2023/07/07 09:05:33;;;;;;;10.00;4.80;;;;;;;22.56;47.66;100235.78;6122330;23;20337;-88
2023/07/07 09:08:27;;;;;;;7.53;4.38;;;;;;;22.63;47.57;100242.91;6074590;23;20328;-88
2023/07/07 09:11:20;;;;;;;6.50;4.13;;;;;;;22.69;48.05;100231.22;6100959;23;20025;-87
2023/07/07 09:13:49;;;;;;;5.28;3.90;;;;;;;22.72;47.93;100238.16;6098297;23;20105;-87
2023/07/07 09:16:35;;;;;;;10.95;5.07;;;;;;;22.70;47.92;100232.09;6098910;23;20022;-87
2023/07/07 09:19:29;;;;;;;10.63;4.78;;;;;;;22.69;47.97;100233.94;6074498;23;20461;-88
2023/07/07 09:21:59;;;;;;;7.35;4.32;;;;;;;22.79;48.08;100232.72;6089955;23;20445;-87
2023/07/07 09:24:34;;;;;;;7.47;4.93;;;;;;;22.81;48.12;100227.94;6097888;23;20428;-87
2023/07/07 09:27:17;;;;;;;7.93;4.25;;;;;;;22.80;47.97;100231.69;6099014;23;20024;-87
2023/07/07 09:29:44;;;;;;;7.60;4.43;;;;;;;22.86;48.23;100228.97;6096914;23;20087;-87
2023/07/07 09:32:12;;;;;;;10.45;5.43;;;;;;;22.92;48.37;100233.59;6075337;23;20021;-87
2023/07/07 09:34:40;;;;;;;7.32;4.55;;;;;;;22.90;48.31;100224.84;6074482;23;20072;-90
2023/07/07 09:37:48;;;;;;;9.02;4.70;;;;;;;22.89;48.09;100227.72;6098600;23;20032;-87
2023/07/07 09:40:18;;;;;;;7.25;4.38;;;;;;;22.99;47.89;100230.06;6072637;23;20031;-87
2023/07/07 09:43:03;;;;;;;7.50;4.70;;;;;;;22.96;48.09;100228.59;6098313;23;20032;-87
2023/07/07 09:45:59;;;;;;;7.60;4.68;;;;;;;22.95;48.18;100222.34;6098153;23;20414;-86
2023/07/07 09:48:48;;;;;;;10.55;5.15;;;;;;;23.03;47.36;100218.63;6121942;23;20072;-88
2023/07/07 09:51:50;;;;;;;10.10;4.95;;;;;;;23.02;47.69;100225.06;6098555;23;20422;-86
2023/07/07 09:54:17;;;;;;;10.75;4.75;;;;;;;23.15;47.10;100218.81;6097363;23;20035;-87
2023/07/07 09:56:55;;;;;;;14.55;5.45;;;;;;;23.14;47.29;100217.97;6123306;23;20027;-88
2023/07/07 09:59:27;;;;;;;8.80;5.10;;;;;;;23.19;46.93;100220.91;6097838;23;20510;-88
2023/07/07 10:01:55;;;;;;;9.13;5.13;;;;;;;23.20;46.88;100216.31;6098688;23;20101;-87
2023/07/07 10:04:24;;;;;;;11.75;5.97;;;;;;;23.24;46.49;100211.31;6122070;23;20417;-86
2023/07/07 10:07:04;;;;;;;8.65;4.78;;;;;;;23.21;46.00;100207.16;6098506;23;20029;-86
2023/07/07 10:09:31;;;;;;;9.65;5.53;;;;;;;23.27;46.38;100205.47;6121654;23;20017;-87
2023/07/07 10:11:58;;;;;;;8.85;4.72;;;;;;;23.35;45.89;100205.25;6098569;23;20089;-86
2023/07/07 10:14:30;;;;;;;8.23;5.20;;;;;;;23.36;46.10;100196.09;6123862;23;20025;-87
2023/07/07 10:17:14;;;;;;;8.73;5.43;;;;;;;23.32;46.04;100194.84;6123015;23;20074;-87
2023/07/07 10:19:45;;;;;;;9.82;5.47;;;;;;;23.43;45.85;100196.06;6074316;23;20025;-88
2023/07/07 10:22:14;;;;;;;10.60;5.50;;;;;;;23.44;45.83;100187.75;6121970;23;20033;-90
2023/07/07 10:24:44;;;;;;;9.50;5.60;;;;;;;23.46;44.96;100188.38;6098456;23;20028;-89
2023/07/07 10:27:12;;;;;;;10.85;5.65;;;;;;;23.51;44.75;100190.41;6074407;23;20025;-89
2023/07/07 10:29:43;;;;;;;12.40;5.85;;;;;;;23.53;44.65;100193.75;6049983;23;20029;-88
2023/07/07 10:32:20;;;;;;;11.15;5.70;;;;;;;23.55;43.05;100191.69;6074436;23;20029;-88
2023/07/07 10:34:48;;;;;;;8.45;5.72;;;;;;;23.58;43.23;100185.81;6073865;23;20521;-89
2023/07/07 10:37:24;;;;;;;12.23;5.65;;;;;;;23.54;42.94;100188.13;6098242;23;20036;-90
2023/07/07 10:39:53;;;;;;;12.25;6.47;;;;;;;23.62;42.96;100187.06;6073131;23;20050;-87
2023/07/07 10:42:23;;;;;;;14.30;6.13;;;;;;;23.61;42.47;100178.13;6073757;23;20033;-90
2023/07/07 10:44:54;;;;;;;9.50;5.78;;;;;;;23.62;42.37;100177.06;6074139;23;20021;-89
2023/07/07 10:47:25;;;;;;;11.95;6.80;;;;;;;23.63;41.89;100183.31;6122416;23;20397;-88
2023/07/07 10:49:52;;;;;;;10.23;6.63;;;;;;;23.65;41.49;100175.81;6096709;23;20049;-89
2023/07/07 10:52:31;;;;;;;11.35;6.15;;;;;;;23.64;41.40;100171.44;6073767;23;20025;-87
2023/07/07 10:55:20;;;;;;;13.35;7.32;;;;;;;23.60;41.75;100164.75;6097045;23;20086;-87
2023/07/07 10:57:53;;;;;;;12.90;6.97;;;;;;;23.67;41.31;100160.16;6121686;23;20036;-89
2023/07/07 11:00:26;;;;;;;;;;;;;;;23.59;42.52;100172.06;6121951;23;20029;-88
2023/07/07 11:03:05;;;;;;;11.00;5.72;;;;;;;23.76;42.39;100158.91;6123965;23;20392;-89
2023/07/07 11:05:39;;;;;;;12.07;6.60;;;;;;;23.80;42.35;100162.03;6122783;23;20027;-88
2023/07/07 11:08:40;;;;;;;12.75;7.18;;;;;;;23.79;42.39;100153.06;6076438;23;20100;-87
2023/07/07 11:11:12;;;;;;;9.95;6.25;;;;;;;23.86;43.04;100157.63;6096554;23;20030;-87
2023/07/07 11:13:39;;;;;;;;;;;;;;;23.71;43.55;100149.72;6074330;23;20025;-88
2023/07/07 11:16:21;;;;;;;11.25;6.93;;;;;;;23.90;43.15;100156.16;6121071;23;19920;-87
2023/07/07 11:19:26;;;;;;;13.00;6.78;;;;;;;23.84;43.41;100157.84;6120842;23;20449;-88
2023/07/07 11:22:25;;;;;;;11.88;6.47;;;;;;;23.90;43.20;100150.72;6005455;23;20027;-88
2023/07/07 11:25:14;;;;;;;21.27;6.80;;;;;;;23.96;42.11;100144.41;6004998;23;20027;-87
2023/07/07 11:28:00;;;;;;;16.45;7.32;;;;;;;24.03;42.52;100146.06;6060139;23;20024;-88
2023/07/07 11:30:42;;;;;;;13.05;7.38;;;;;;;24.07;42.36;100145.63;6096564;23;20025;-88
2023/07/07 11:33:27;;;;;;;11.10;6.97;;;;;;;24.11;42.31;100141.44;6096429;23;20028;-87
2023/07/07 11:36:21;;;;;;;13.75;7.22;;;;;;;24.09;42.13;100141.63;6096853;23;20084;-88
2023/07/07 11:39:28;;;;;;;15.07;7.95;;;;;;;24.15;42.25;100146.22;6121609;23;20017;-90
2023/07/07 11:42:13;;;;;;;16.58;8.68;;;;;;;24.23;41.64;100137.00;5974046;23;20026;-88
2023/07/07 11:44:53;;;;;;;13.18;7.53;;;;;;;24.22;41.60;100135.31;6096619;23;20426;-89
2023/07/07 11:47:38;;;;;;;13.55;7.93;;;;;;;24.23;42.08;100142.41;6097311;23;20481;-92
2023/07/07 11:50:45;;;;;;;15.55;9.25;;;;;;;24.25;41.44;100132.19;6098503;23;20017;-91
2023/07/07 11:53:34;;;;;;;16.52;10.20;;;;;;;24.27;40.56;100138.19;6122090;23;20104;-89
2023/07/07 11:56:50;;;;;;;16.45;8.65;;;;;;;24.27;40.89;100132.75;6072743;23;20021;-90
2023/07/07 11:59:56;;;;;;;16.33;8.68;;;;;;;24.32;40.82;100124.81;6118713;23;20694;-90
2023/07/07 12:02:31;;;;;;;14.45;8.48;;;;;;;24.40;40.75;100124.56;6074665;23;20029;-89
2023/07/07 12:05:00;;;;;;;14.52;8.30;;;;;;;24.44;40.60;100124.94;6049868;23;20397;-90
2023/07/07 12:07:47;;;;;;;16.15;8.13;;;;;;;24.44;40.68;100125.78;6073207;23;20021;-91
2023/07/07 12:10:17;;;;;;;14.63;8.23;;;;;;;24.49;40.09;100119.72;6048291;23;20040;-89
2023/07/07 12:12:55;;;;;;;15.30;8.48;;;;;;;24.50;39.91;100128.69;6072613;23;20092;-90
2023/07/07 12:15:26;;;;;;;15.38;7.93;;;;;;;24.54;40.09;100128.03;6073315;23;20025;-88
2023/07/07 12:18:10;;;;;;;13.25;8.05;;;;;;;24.51;39.57;100114.09;6122132;23;20025;-89
2023/07/07 12:20:42;;;;;;;16.65;8.57;;;;;;;24.59;38.82;100113.81;6048677;23;20028;-89